CDT,Max TemperatureF,Mean TemperatureF,Min TemperatureF,Max Dew PointF,MeanDew PointF,Min DewpointF,Max Humidity, Mean Humidity, Min Humidity, Max Sea Level PressureIn, Mean Sea Level PressureIn, Min Sea Level PressureIn, Max VisibilityMiles, Mean VisibilityMiles, Min VisibilityMiles, Max Wind SpeedMPH, Mean Wind SpeedMPH, Max Gust SpeedMPH,PrecipitationIn, CloudCover, Events, WindDirDegrees
2013-9-1,89,78,66,73,66,57,100,72,43,29.89,29.81,29.77,10,6,0,13,5,21,0.00,1,Fog,282
2013-9-2,80,70,60,61,57,51,97,68,39,30.02,29.96,29.88,10,9,6,13,8,18,0.00,0,,345
2013-9-3,80,66,52,56,53,49,93,64,35,30.11,30.06,30.02,10,10,4,10,2,13,0.00,0,,2
2013-9-4,87,70,52,62,57,51,93,64,34,30.16,30.11,30.06,10,9,2,8,2,13,0.00,0,,165
2013-9-5,89,75,61,66,62,58,97,69,41,30.19,30.15,30.12,10,9,2,9,3,14,0.00,0,,165
2013-9-6,89,77,64,66,62,59,93,66,38,30.17,30.09,29.99,10,10,8,14,6,20,0.00,0,,154
2013-9-7,95,79,63,69,65,60,93,67,41,30.00,29.93,29.85,10,9,7,17,7,21,T,0,Rain,195
2013-9-8,86,80,74,72,70,67,87,75,62,29.95,29.90,29.84,10,10,10,15,8,21,0.00,2,,127
2013-9-9,100,86,72,72,67,61,100,65,29,29.90,29.86,29.81,10,8,4,17,8,23,0.00,0,,208
2013-9-10,98,84,69,67,63,59,78,54,30,30.02,29.98,29.91,10,8,2,21,9,30,0.00,0,,211
2013-9-11,92,81,70,70,66,63,87,66,44,30.09,30.04,30.01,10,8,2,17,6,29,0.17,2,Rain,263
2013-9-12,82,71,59,70,57,42,100,63,26,30.12,30.07,30.03,10,9,2,18,8,26,T,2,Rain,320
2013-9-13,73,64,54,49,43,34,83,54,25,30.21,30.15,30.12,10,10,10,17,8,21,0.00,0,,34
2013-9-14,74,59,44,48,44,39,93,62,31,30.19,30.10,30.00,10,10,10,13,6,16,0.00,0,,158
2013-9-15,67,63,58,64,57,44,93,74,55,30.19,30.03,29.96,10,8,0,15,9,20,0.26,7,Fog-Rain,264
2013-9-16,70,62,54,54,53,48,93,73,53,30.35,30.27,30.20,10,10,10,18,8,24,0.00,5,,53
2013-9-17,69,61,52,61,56,48,89,79,68,30.30,30.17,30.07,10,10,9,12,7,16,0.00,5,,141
2013-9-18,88,76,63,70,65,59,93,73,53,30.06,29.95,29.86,10,10,7,18,11,23,0.00,1,,182
2013-9-19,94,81,67,69,66,61,100,70,39,29.90,29.86,29.74,10,8,2,22,11,31,0.65,3,Rain-Thunderstorm,204
2013-9-20,71,62,52,67,59,48,100,74,47,29.93,29.89,29.83,10,10,10,15,7,22,T,5,,288
2013-9-21,71,60,49,51,47,45,93,67,40,29.99,29.95,29.91,10,10,7,14,5,18,0.00,0,,333
2013-9-22,74,61,47,52,49,46,100,71,41,30.05,29.99,29.95,10,10,10,10,4,15,0.00,0,,109
2013-9-23,75,63,50,52,49,47,89,65,41,30.05,29.99,29.94,10,10,10,15,8,21,0.00,0,,133
2013-9-24,76,65,53,58,53,47,83,69,54,29.96,29.90,29.84,10,10,10,14,7,20,0.00,2,,105
2013-9-25,80,68,56,59,55,50,86,66,45,29.93,29.89,29.86,10,10,8,12,7,16,0.00,1,,68
2013-9-26,84,71,57,62,57,52,80,60,40,30.01,29.97,29.91,10,10,9,16,7,21,0.00,0,,131
2013-9-27,83,73,62,62,56,51,78,58,37,30.08,30.02,29.97,10,10,10,17,9,22,0.00,0,,157
2013-9-28,79,65,51,69,60,52,100,78,56,30.05,29.95,29.90,10,8,1,23,10,28,0.12,6,Rain,212
2013-9-29,73,58,43,54,48,43,100,68,35,30.10,30.05,29.99,10,5,0,3,2,5,0.00,0,Fog,338
2013-9-30,78,61,44,58,50,43,93,67,40,29.99,29.91,29.85,10,10,9,18,7,23,0.00,0,,184